createdAt,value
2018-02-04T00:01:52.921Z,89.72
2018-02-04T00:04:20.412Z,89.83
2018-02-04T00:06:47.862Z,90.40
2018-02-04T00:09:15.349Z,90.21
2018-02-04T00:11:42.793Z,89.95
2018-02-04T00:14:10.228Z,89.93
2018-02-04T00:16:37.687Z,89.66
2018-02-04T00:19:05.149Z,89.66
2018-02-04T00:21:32.625Z,89.68
2018-02-04T00:24:00.054Z,89.33
2018-02-04T00:26:27.511Z,89.52
2018-02-04T00:28:54.977Z,89.45
2018-02-04T00:31:22.413Z,90.04
2018-02-04T00:33:50.209Z,90.23
2018-02-04T00:36:17.673Z,90.29
2018-02-04T00:38:45.121Z,90.10
2018-02-04T00:41:12.589Z,90.21
2018-02-04T00:43:40.029Z,90.72
2018-02-04T00:46:07.674Z,91.02
2018-02-04T00:48:35.113Z,90.50
2018-02-04T00:51:02.557Z,90.44
2018-02-04T00:53:30.025Z,89.99
2018-02-04T00:55:57.461Z,90.36
2018-02-04T00:58:25.025Z,90.70
2018-02-04T01:00:52.461Z,90.90
2018-02-04T01:03:19.900Z,90.75
2018-02-04T01:05:47.356Z,90.83
2018-02-04T01:08:14.796Z,90.68
2018-02-04T01:10:42.273Z,90.68
2018-02-04T01:13:09.716Z,90.61
2018-02-04T01:15:37.168Z,91.08
2018-02-04T01:18:04.684Z,91.18
2018-02-04T01:20:32.122Z,90.79
2018-02-04T01:22:59.731Z,90.78
2018-02-04T01:25:27.168Z,91.64
2018-02-04T01:27:54.613Z,91.67
2018-02-04T01:30:22.077Z,91.88
2018-02-04T01:32:49.522Z,91.75
2018-02-04T01:35:17.001Z,92.00
2018-02-04T01:37:44.484Z,91.87
2018-02-04T01:40:11.937Z,92.09
2018-02-04T01:42:39.410Z,92.03
2018-02-04T01:45:06.849Z,91.94
2018-02-04T01:47:34.317Z,92.12
2018-02-04T01:50:01.799Z,92.04
2018-02-04T01:52:29.237Z,91.92
2018-02-04T01:54:56.712Z,92.52
2018-02-04T01:57:24.144Z,92.13
2018-02-04T01:59:51.609Z,92.19
2018-02-04T02:02:19.069Z,92.22
2018-02-04T02:04:46.549Z,92.37
2018-02-04T02:07:14.010Z,92.48
2018-02-04T02:09:41.466Z,92.26
2018-02-04T02:12:08.949Z,92.20
2018-02-04T02:14:36.400Z,92.33
2018-02-04T02:17:03.837Z,92.30
2018-02-04T02:19:31.342Z,92.82
2018-02-04T02:21:58.796Z,92.21
2018-02-04T02:24:26.454Z,91.84
2018-02-04T02:26:53.908Z,91.68
2018-02-04T02:29:21.346Z,91.93
2018-02-04T02:31:48.802Z,91.91
2018-02-04T02:34:16.253Z,92.11
2018-02-04T02:36:43.729Z,92.70
2018-02-04T02:39:11.164Z,92.58
2018-02-04T02:41:38.609Z,92.63
2018-02-04T02:44:06.072Z,92.36
2018-02-04T02:46:33.521Z,92.08
2018-02-04T02:49:01.323Z,92.08
2018-02-04T02:51:28.760Z,92.07
2018-02-04T02:53:56.200Z,92.36
2018-02-04T02:56:23.673Z,92.16
2018-02-04T02:58:51.115Z,91.54
2018-02-04T03:01:18.710Z,92.45
2018-02-04T03:03:46.154Z,92.23
2018-02-04T03:06:13.588Z,92.37
2018-02-04T03:08:41.057Z,92.47
2018-02-04T03:11:08.497Z,92.46
2018-02-04T03:13:36.095Z,92.54
2018-02-04T03:16:03.572Z,92.50
2018-02-04T03:18:31.011Z,92.39
2018-02-04T03:20:58.468Z,92.57
2018-02-04T03:23:25.904Z,92.56
2018-02-04T03:25:53.377Z,92.36
2018-02-04T03:28:20.821Z,92.43
2018-02-04T03:30:48.263Z,92.39
2018-02-04T03:33:15.728Z,92.18
2018-02-04T03:35:43.165Z,92.39
2018-02-04T03:38:10.921Z,92.82
2018-02-04T03:40:38.370Z,92.89
2018-02-04T03:43:05.829Z,93.07
2018-02-04T03:45:33.293Z,93.13
2018-02-04T03:48:00.740Z,93.29
2018-02-04T03:50:28.273Z,92.93
2018-02-04T03:52:55.713Z,92.72
2018-02-04T03:55:23.177Z,92.71
2018-02-04T03:57:50.648Z,92.55
2018-02-04T04:00:18.087Z,92.29
2018-02-04T04:02:45.836Z,92.88
2018-02-04T04:05:13.281Z,93.14
2018-02-04T04:07:40.725Z,93.09
2018-02-04T04:10:08.210Z,93.05
2018-02-04T04:12:35.664Z,92.79
2018-02-04T04:15:03.137Z,92.98
2018-02-04T04:17:30.628Z,93.07
2018-02-04T04:19:58.070Z,93.22
2018-02-04T04:22:25.544Z,92.86
2018-02-04T04:24:52.981Z,92.96
2018-02-04T04:27:20.460Z,93.14
2018-02-04T04:29:47.900Z,93.04
2018-02-04T04:32:15.344Z,92.68
2018-02-04T04:34:42.804Z,92.91
2018-02-04T04:37:10.253Z,92.73
2018-02-04T04:39:37.889Z,93.13
2018-02-04T04:42:05.325Z,92.60
2018-02-04T04:44:32.764Z,92.83
2018-02-04T04:47:00.720Z,92.66
2018-02-04T04:49:28.288Z,93.32
2018-02-04T04:51:55.798Z,93.51
2018-02-04T04:54:23.240Z,93.23
2018-02-04T04:56:50.680Z,93.46
2018-02-04T04:59:18.144Z,93.29
2018-02-04T05:01:45.593Z,93.35
2018-02-04T05:04:13.060Z,93.29
2018-02-04T05:06:40.512Z,93.50
2018-02-04T05:09:07.965Z,93.72
2018-02-04T05:11:35.438Z,93.83
2018-02-04T05:14:02.881Z,93.84
2018-02-04T05:16:30.680Z,93.48
2018-02-04T05:18:58.139Z,92.71
2018-02-04T05:21:25.584Z,92.55
2018-02-04T05:23:53.121Z,91.25
2018-02-04T05:26:20.570Z,91.42
2018-02-04T05:28:48.448Z,90.99
2018-02-04T05:31:15.904Z,92.35
2018-02-04T05:33:43.355Z,92.87
2018-02-04T05:36:10.822Z,92.70
2018-02-04T05:38:38.269Z,93.33
2018-02-04T05:41:05.939Z,93.05
2018-02-04T05:43:33.396Z,93.19
2018-02-04T05:46:00.845Z,93.62
2018-02-04T05:48:28.309Z,93.40
2018-02-04T05:50:55.773Z,93.40
2018-02-04T05:53:23.344Z,93.45
2018-02-04T05:55:50.797Z,93.46
2018-02-04T05:58:18.239Z,93.71
2018-02-04T06:00:45.705Z,93.04
2018-02-04T06:03:13.151Z,93.14
2018-02-04T06:05:40.808Z,93.49
2018-02-04T06:08:08.254Z,93.80
2018-02-04T06:10:35.696Z,93.99
2018-02-04T06:13:03.166Z,94.42
2018-02-04T06:15:30.646Z,94.69
2018-02-04T06:17:58.336Z,94.50
2018-02-04T06:20:25.808Z,93.36
2018-02-04T06:22:53.258Z,92.59
2018-02-04T06:25:20.724Z,92.62
2018-02-04T06:27:48.168Z,91.80
2018-02-04T06:30:15.653Z,92.03
2018-02-04T06:32:43.093Z,91.62
2018-02-04T06:35:10.547Z,92.31
2018-02-04T06:37:38.053Z,92.92
2018-02-04T06:40:05.508Z,93.15
2018-02-04T06:42:33.009Z,92.82
2018-02-04T06:45:00.465Z,92.73
2018-02-04T06:47:27.941Z,93.34
2018-02-04T06:49:55.409Z,93.03
2018-02-04T06:52:22.857Z,93.29
2018-02-04T06:54:50.352Z,93.08
2018-02-04T06:57:17.813Z,93.26
2018-02-04T06:59:45.257Z,93.12
2018-02-04T07:02:12.749Z,92.94
2018-02-04T07:04:40.204Z,92.66
2018-02-04T07:07:07.865Z,92.56
2018-02-04T07:09:35.337Z,92.75
2018-02-04T07:12:02.773Z,92.96
2018-02-04T07:14:30.240Z,92.20
2018-02-04T07:16:57.688Z,89.49
2018-02-04T07:19:25.336Z,89.83
2018-02-04T07:21:52.792Z,88.96
2018-02-04T07:24:20.256Z,88.64
2018-02-04T07:26:47.724Z,88.83
2018-02-04T07:29:15.212Z,88.28
2018-02-04T07:31:42.701Z,88.12
2018-02-04T07:34:10.144Z,87.65
2018-02-04T07:36:37.588Z,87.27
2018-02-04T07:39:05.045Z,86.71
2018-02-04T07:41:32.516Z,85.89
2018-02-04T07:44:00.153Z,86.22
2018-02-04T07:46:28.532Z,85.85
2018-02-04T07:48:55.986Z,86.19
2018-02-04T07:51:23.462Z,86.11
2018-02-04T07:53:51.056Z,85.92
2018-02-04T07:56:18.517Z,86.14
2018-02-04T07:58:45.958Z,85.64
2018-02-04T08:01:13.397Z,84.17
2018-02-04T08:03:40.857Z,84.07
2018-02-04T08:06:08.297Z,83.92
2018-02-04T08:08:35.786Z,84.63
2018-02-04T08:11:03.225Z,84.88
2018-02-04T08:13:30.661Z,84.65
2018-02-04T08:15:58.117Z,83.86
2018-02-04T08:18:25.617Z,82.68
2018-02-04T08:20:53.474Z,82.48
2018-02-04T08:23:20.913Z,81.98
2018-02-04T08:25:48.355Z,82.55
2018-02-04T08:28:15.818Z,81.94
2018-02-04T08:30:43.253Z,82.08
2018-02-04T08:33:10.965Z,82.43
2018-02-04T08:35:38.461Z,82.63
2018-02-04T08:38:05.874Z,83.72
2018-02-04T08:40:33.344Z,83.39
2018-02-04T08:43:00.791Z,82.48
2018-02-04T08:45:28.448Z,82.91
2018-02-04T08:47:55.896Z,82.79
2018-02-04T08:50:23.349Z,82.01
2018-02-04T08:52:50.813Z,81.33
2018-02-04T08:55:18.284Z,80.90
2018-02-04T08:57:45.937Z,80.71
2018-02-04T09:00:13.373Z,81.08
2018-02-04T09:02:40.809Z,80.62
2018-02-04T09:05:08.269Z,81.07
2018-02-04T09:07:35.714Z,80.88
2018-02-04T09:10:03.381Z,80.03
2018-02-04T09:12:30.788Z,79.50
2018-02-04T09:17:50.801Z,80.07
2018-02-04T09:20:18.341Z,79.87
2018-02-04T09:22:45.825Z,79.18
2018-02-04T09:25:13.281Z,79.09
2018-02-04T09:27:40.736Z,78.21
2018-02-04T09:30:08.193Z,79.04
2018-02-04T09:32:35.632Z,77.22
2018-02-04T09:35:03.280Z,77.20
2018-02-04T09:37:30.898Z,76.40
2018-02-04T09:39:58.357Z,76.53
2018-02-04T09:42:25.818Z,76.52
2018-02-04T09:44:53.281Z,76.60
2018-02-04T09:47:20.888Z,74.35
2018-02-04T09:49:48.330Z,75.08
2018-02-04T09:52:15.766Z,74.69
2018-02-04T09:54:43.244Z,74.96
2018-02-04T09:57:10.705Z,75.38
2018-02-04T09:59:38.379Z,73.88
2018-02-04T10:02:05.817Z,73.95
2018-02-04T10:04:33.262Z,74.26
2018-02-04T10:07:00.736Z,74.58
2018-02-04T10:09:28.189Z,72.39
2018-02-04T10:11:55.964Z,72.24
2018-02-04T10:14:23.421Z,73.32
2018-02-04T10:16:50.865Z,73.21
2018-02-04T10:19:18.358Z,72.99
2018-02-04T10:21:46.354Z,71.87
2018-02-04T10:24:15.400Z,71.47
2018-02-04T10:26:43.404Z,71.57
2018-02-04T10:29:11.145Z,71.74
2018-02-04T10:31:39.873Z,72.55
2018-02-04T10:34:08.120Z,72.81
2018-02-04T10:36:36.239Z,72.99
2018-02-04T10:39:03.963Z,72.61
2018-02-04T10:41:32.379Z,72.44
2018-02-04T10:44:00.401Z,71.41
2018-02-04T10:46:27.845Z,71.77
2018-02-04T10:48:55.507Z,72.17
2018-02-04T10:51:28.556Z,72.71
2018-02-04T10:53:56.228Z,71.94
2018-02-04T10:56:23.693Z,71.15
2018-02-04T10:58:51.172Z,71.32
2018-02-04T11:01:18.702Z,71.36
2018-02-04T11:03:46.189Z,70.37
2018-02-04T11:06:13.949Z,70.95
2018-02-04T11:08:41.401Z,71.08
2018-02-04T11:11:08.838Z,71.05
2018-02-04T11:13:36.300Z,71.22
2018-02-04T11:16:03.769Z,71.46
2018-02-04T11:18:31.436Z,71.80
2018-02-04T11:20:58.873Z,72.81
2018-02-04T11:23:26.321Z,70.98
2018-02-04T11:25:53.794Z,70.94
2018-02-04T11:28:21.284Z,71.62
2018-02-04T11:30:49.003Z,72.38
2018-02-04T11:33:16.448Z,72.25
2018-02-04T11:35:43.889Z,71.70
2018-02-04T11:38:11.356Z,70.78
2018-02-04T11:40:38.793Z,71.26
2018-02-04T11:43:06.264Z,71.10
2018-02-04T11:45:33.700Z,71.64
2018-02-04T11:48:01.144Z,71.52
2018-02-04T11:50:28.650Z,70.75
2018-02-04T11:52:56.132Z,72.66
2018-02-04T11:55:23.593Z,71.10
2018-02-04T11:57:51.029Z,71.96
2018-02-04T12:00:18.471Z,71.32
2018-02-04T12:02:45.997Z,71.42
2018-02-04T12:05:13.433Z,73.08
2018-02-04T12:07:41.072Z,73.05
2018-02-04T12:10:08.513Z,73.06
2018-02-04T12:12:35.949Z,74.91
2018-02-04T12:15:03.433Z,74.71
2018-02-04T12:17:30.874Z,75.19
2018-02-04T12:19:58.433Z,74.91
2018-02-04T12:22:25.868Z,75.14
2018-02-04T12:24:53.309Z,73.93
2018-02-04T12:27:20.768Z,72.45
2018-02-04T12:29:48.205Z,71.20
2018-02-04T12:32:16.941Z,72.41
2018-02-04T12:34:44.381Z,71.34
2018-02-04T12:37:11.833Z,71.68
2018-02-04T12:39:39.293Z,71.99
2018-02-04T12:42:06.729Z,71.03
2018-02-04T12:44:34.545Z,71.43
2018-02-04T12:47:01.996Z,71.98
2018-02-04T12:49:29.432Z,71.46
2018-02-04T12:51:56.905Z,71.34
2018-02-04T12:54:24.348Z,70.73
2018-02-04T12:56:52.025Z,71.02
2018-02-04T12:59:19.456Z,71.01
2018-02-04T13:01:46.897Z,71.36
2018-02-04T13:04:14.364Z,70.83
2018-02-04T13:06:41.857Z,71.01
2018-02-04T13:09:09.664Z,70.16
2018-02-04T13:11:37.187Z,70.97
2018-02-04T13:14:04.622Z,70.02
2018-02-04T13:16:32.334Z,69.84
2018-02-04T13:18:59.776Z,69.17
2018-02-04T13:21:27.263Z,70.27
2018-02-04T13:23:54.728Z,70.06
2018-02-04T13:26:22.164Z,70.80
2018-02-04T13:28:49.629Z,69.96
2018-02-04T13:31:17.069Z,69.99
2018-02-04T13:33:44.689Z,70.95
2018-02-04T13:36:12.125Z,70.94
2018-02-04T13:38:39.612Z,70.28
2018-02-04T13:41:07.069Z,69.99
2018-02-04T13:43:34.521Z,70.70
2018-02-04T13:46:02.001Z,69.45
2018-02-04T13:48:29.454Z,69.24
2018-02-04T13:50:56.913Z,71.03
2018-02-04T13:53:24.401Z,69.42
2018-02-04T13:55:51.847Z,69.19
2018-02-04T13:58:19.329Z,68.70
2018-02-04T14:00:46.780Z,69.96
2018-02-04T14:03:14.225Z,69.13
2018-02-04T14:05:41.710Z,69.28
2018-02-04T14:08:09.167Z,68.83
2018-02-04T14:10:37.042Z,68.74
2018-02-04T14:13:04.485Z,69.80
2018-02-04T14:15:31.921Z,69.89
2018-02-04T14:17:59.388Z,68.26
2018-02-04T14:20:26.833Z,67.61
2018-02-04T14:22:54.441Z,68.50
2018-02-04T14:25:21.885Z,70.79
2018-02-04T14:27:49.398Z,70.73
2018-02-04T14:30:16.868Z,69.25
2018-02-04T14:32:44.320Z,69.70
2018-02-04T14:35:11.896Z,68.13
2018-02-04T14:37:39.337Z,67.14
2018-02-04T14:40:06.789Z,68.23
2018-02-04T14:42:34.246Z,67.49
2018-02-04T14:45:01.711Z,66.89
2018-02-04T14:47:29.201Z,66.41
2018-02-04T14:49:56.645Z,67.16
2018-02-04T14:52:24.116Z,67.18
2018-02-04T14:54:51.576Z,66.53
2018-02-04T14:57:19.013Z,66.84
2018-02-04T14:59:46.692Z,66.58
2018-02-04T15:02:14.225Z,68.74
2018-02-04T15:04:41.661Z,66.40
2018-02-04T15:07:09.121Z,63.93
2018-02-04T15:09:36.566Z,64.79
2018-02-04T15:12:04.207Z,64.78
2018-02-04T15:14:31.646Z,65.33
2018-02-04T15:16:59.092Z,65.29
2018-02-04T15:19:26.545Z,65.14
2018-02-04T15:21:53.992Z,65.77
2018-02-04T15:24:21.481Z,65.66
2018-02-04T15:26:48.914Z,66.77
2018-02-04T15:29:16.357Z,66.59
2018-02-04T15:31:43.813Z,67.10
2018-02-04T15:34:11.245Z,65.52
2018-02-04T15:36:38.843Z,66.07
2018-02-04T15:39:06.290Z,65.71
2018-02-04T15:41:33.724Z,66.98
2018-02-04T15:44:01.208Z,66.35
2018-02-04T15:46:28.657Z,65.87
2018-02-04T15:48:56.141Z,67.14
2018-02-04T15:51:23.581Z,68.13
2018-02-04T15:53:51.041Z,67.19
2018-02-04T15:56:18.505Z,67.06
2018-02-04T15:58:45.951Z,68.03
2018-02-04T16:01:13.608Z,68.82
2018-02-04T16:03:41.057Z,67.64
2018-02-04T16:06:08.501Z,67.90
2018-02-04T16:08:35.964Z,68.11
2018-02-04T16:11:03.404Z,69.00
2018-02-04T16:13:30.994Z,69.43
2018-02-04T16:15:58.433Z,69.23
2018-02-04T16:18:25.894Z,68.96
2018-02-04T16:20:53.393Z,68.54
2018-02-04T16:23:20.833Z,68.94
2018-02-04T16:25:48.488Z,69.53
2018-02-04T16:28:15.930Z,69.70
2018-02-04T16:30:43.369Z,70.77
2018-02-04T16:33:10.828Z,69.78
2018-02-04T16:35:38.277Z,70.36
2018-02-04T16:38:05.869Z,70.44
2018-02-04T16:40:33.323Z,70.71
2018-02-04T16:43:00.762Z,70.02
2018-02-04T16:45:28.236Z,70.76
2018-02-04T16:47:55.697Z,71.61
2018-02-04T16:50:23.352Z,71.42
2018-02-04T16:52:50.798Z,71.49
2018-02-04T16:55:18.289Z,71.97
2018-02-04T16:57:45.756Z,72.35
2018-02-04T17:00:13.203Z,72.54
2018-02-04T17:02:40.949Z,73.37
2018-02-04T17:05:08.410Z,73.30
2018-02-04T17:07:35.859Z,73.20
2018-02-04T17:10:03.317Z,73.31
2018-02-04T17:12:30.753Z,74.45
2018-02-04T17:14:58.437Z,73.59
2018-02-04T17:17:25.898Z,73.96
2018-02-04T17:19:53.337Z,74.06
2018-02-04T17:22:20.802Z,74.79
2018-02-04T17:24:48.260Z,75.08
2018-02-04T17:27:15.728Z,75.66
2018-02-04T17:29:43.177Z,74.87
2018-02-04T17:32:10.612Z,76.23
2018-02-04T17:34:38.113Z,76.92
2018-02-04T17:37:05.549Z,76.98
2018-02-04T17:39:33.414Z,77.74
2018-02-04T17:42:00.864Z,77.61
2018-02-04T17:44:28.309Z,78.27
2018-02-04T17:46:55.784Z,78.39
2018-02-04T17:49:23.224Z,77.98
2018-02-04T17:51:50.704Z,78.92
2018-02-04T17:54:18.148Z,78.16
2018-02-04T17:56:45.580Z,78.82
2018-02-04T17:59:13.069Z,79.48
2018-02-04T18:01:40.501Z,79.71
2018-02-04T18:04:08.289Z,79.12
2018-02-04T18:06:35.736Z,78.57
2018-02-04T18:09:03.177Z,79.47
2018-02-04T18:11:30.634Z,79.75
2018-02-04T18:13:58.078Z,79.79
2018-02-04T18:16:25.553Z,79.37
2018-02-04T18:18:52.993Z,79.24
2018-02-04T18:21:20.433Z,79.51
2018-02-04T18:23:47.888Z,79.82
2018-02-04T18:26:15.324Z,79.50
2018-02-04T18:28:42.997Z,80.08
2018-02-04T18:31:10.501Z,79.90
2018-02-04T18:33:37.910Z,79.94
2018-02-04T18:36:05.374Z,79.38
2018-02-04T18:38:32.833Z,80.21
2018-02-04T18:41:00.320Z,80.37
2018-02-04T18:43:27.758Z,80.98
2018-02-04T18:45:55.213Z,81.35
2018-02-04T18:48:22.700Z,82.00
2018-02-04T18:50:50.137Z,81.86
2018-02-04T18:53:17.701Z,82.25
2018-02-04T18:55:45.141Z,82.52
2018-02-04T18:58:12.589Z,81.35
2018-02-04T19:00:40.065Z,81.17
2018-02-04T19:03:07.546Z,80.98
2018-02-04T19:05:35.524Z,80.92
2018-02-04T19:08:03.005Z,80.75
2018-02-04T19:10:30.608Z,80.75
2018-02-04T19:12:58.127Z,82.22
2018-02-04T19:15:25.576Z,83.65
2018-02-04T19:17:53.102Z,84.90
2018-02-04T19:20:20.546Z,85.48
2018-02-04T19:22:47.985Z,85.22
2018-02-04T19:25:15.445Z,85.08
2018-02-04T19:27:42.886Z,84.79
2018-02-04T19:30:10.936Z,84.97
2018-02-04T19:32:38.381Z,84.63
2018-02-04T19:35:06.259Z,84.39
2018-02-04T19:37:33.740Z,84.14
2018-02-04T19:40:01.181Z,83.25
2018-02-04T19:42:28.786Z,83.01
2018-02-04T19:44:56.320Z,82.82
2018-02-04T19:47:23.765Z,81.96
2018-02-04T19:49:51.247Z,82.32
2018-02-04T19:52:18.718Z,82.33
2018-02-04T19:54:46.273Z,81.59
2018-02-04T19:57:13.742Z,80.66
2018-02-04T19:59:41.200Z,80.78
2018-02-04T20:02:09.260Z,79.48
2018-02-04T20:04:36.698Z,79.39
2018-02-04T20:07:04.234Z,80.20
2018-02-04T20:09:31.704Z,79.86
2018-02-04T20:11:59.484Z,79.12
2018-02-04T20:14:26.997Z,79.35
2018-02-04T20:16:54.436Z,79.24
2018-02-04T20:19:22.253Z,78.52
2018-02-04T20:21:49.692Z,79.17
2018-02-04T20:24:17.135Z,78.28
2018-02-04T20:26:45.346Z,78.14
2018-02-04T20:29:12.815Z,78.82
2018-02-04T20:31:40.297Z,78.39
2018-02-04T20:34:19.689Z,78.37
2018-02-04T20:36:47.164Z,78.06
2018-02-04T20:39:14.605Z,78.78
2018-02-04T20:41:42.059Z,78.40
2018-02-04T20:44:09.529Z,78.72
2018-02-04T20:46:36.970Z,78.66
2018-02-04T20:49:04.468Z,78.24
2018-02-04T20:51:31.908Z,78.68
2018-02-04T20:53:59.347Z,78.56
2018-02-04T20:56:26.805Z,78.16
2018-02-04T20:58:54.237Z,78.37
2018-02-04T21:01:21.837Z,78.42
2018-02-04T21:03:49.277Z,78.02
2018-02-04T21:06:16.709Z,78.37
2018-02-04T21:08:44.170Z,77.93
2018-02-04T21:11:11.621Z,77.84
2018-02-04T21:13:39.216Z,78.11
2018-02-04T21:16:06.652Z,77.74
2018-02-04T21:18:34.093Z,78.03
2018-02-04T21:21:01.553Z,78.05
2018-02-04T21:23:28.997Z,77.89
2018-02-04T21:25:56.707Z,78.02
2018-02-04T21:28:24.145Z,78.25
2018-02-04T21:30:51.588Z,78.86
2018-02-04T21:33:19.057Z,78.28
2018-02-04T21:35:46.527Z,78.69
2018-02-04T21:38:14.194Z,80.02
2018-02-04T21:40:41.660Z,81.17
2018-02-04T21:43:09.108Z,81.95
2018-02-04T21:45:36.565Z,83.60
2018-02-04T21:48:04.017Z,84.08
2018-02-04T21:50:31.448Z,84.73
2018-02-04T21:52:58.913Z,86.71
2018-02-04T21:55:26.391Z,88.51
2018-02-04T21:57:53.832Z,89.53
2018-02-04T22:00:21.289Z,89.50
2018-02-04T22:02:48.728Z,89.68
2018-02-04T22:05:16.197Z,89.15
2018-02-04T22:07:43.658Z,89.01
2018-02-04T22:10:11.121Z,89.15
2018-02-04T22:12:38.560Z,89.12
2018-02-04T22:15:06.161Z,88.58
2018-02-04T22:17:33.618Z,88.62
2018-02-04T22:20:01.091Z,88.67
2018-02-04T22:22:28.772Z,89.00
2018-02-04T22:24:56.222Z,89.00
2018-02-04T22:27:23.664Z,89.30
2018-02-04T22:29:51.285Z,89.44
2018-02-04T22:32:18.726Z,89.41
2018-02-04T22:34:46.156Z,89.27
2018-02-04T22:37:13.642Z,89.25
2018-02-04T22:39:41.083Z,88.73
2018-02-04T22:42:08.532Z,89.35
2018-02-04T22:44:35.989Z,88.38
2018-02-04T22:47:03.429Z,88.66
2018-02-04T22:49:30.869Z,88.12
2018-02-04T22:51:58.433Z,87.84
2018-02-04T22:54:25.869Z,86.49
2018-02-04T22:56:53.325Z,86.91
2018-02-04T22:59:20.781Z,87.22
2018-02-04T23:01:48.217Z,87.32
2018-02-04T23:04:15.880Z,86.84
2018-02-04T23:06:43.321Z,86.44
2018-02-04T23:09:10.756Z,86.62
2018-02-04T23:11:38.224Z,86.89
2018-02-04T23:14:05.689Z,87.25
2018-02-04T23:16:33.268Z,86.99
2018-02-04T23:19:00.784Z,87.25
2018-02-04T23:21:28.224Z,87.31
2018-02-04T23:23:55.676Z,86.88
2018-02-04T23:26:23.109Z,86.17
2018-02-04T23:28:50.759Z,86.03
2018-02-04T23:31:18.204Z,86.11
2018-02-04T23:33:45.655Z,85.93
2018-02-04T23:36:13.133Z,85.29
2018-02-04T23:38:40.569Z,85.40
2018-02-04T23:41:08.244Z,85.06
2018-02-04T23:43:35.702Z,84.97
2018-02-04T23:46:03.145Z,84.84
2018-02-04T23:48:30.596Z,84.80
2018-02-04T23:50:58.033Z,84.46
2018-02-04T23:53:25.736Z,84.68
2018-02-04T23:55:53.177Z,85.05
2018-02-04T23:58:20.608Z,84.91
